Current Conditions
Misty
Conditions



Pressure
1014.92 (mb) - 29.97 (inHG)
Visibility

5.0 (km) - 3.1 (miles)
Temperature
19  °C
Temperature
17  °C
Dewpoint
88  %
 Humidity
Wind Speed
2  km/h
1  kts
1  mph
0.4  m/s
Wind Direction
N
45°
E
90°
135°
S
180°
225°
W
270°
315°
Calm

Due North
Airport Data
LOWL
Linz-Hörsching Airport / Vogler Air Base
Metar :LOWL 300650Z AUTO VRB01KT 5000 BR FEW005 BKN006 19/17 Q1015 TEMPO 4500 BR
Thu 30th June 08:50 am
Raw Metar Info
Raw METAR is the most common format in the world for the transmission of observational weather data. It is highly standardized through the International Civil Aviation Organization (ICAO), which allows it to be understood throughout most of the world.
API Info
Data Provided by
https://www.checkwx.com/weather/LOWL

Aviation Weather providing METAR, TAF, AIRMET, SIGMET and OUTLOOK Weather Reports
© Info
CSS/SVG/PHP scripts were developed by weather34 for use in the weather34 template © 2015-2022

Guide Info provided by Metar-Wikipedia